createdAt,value
2018-06-09T00:00:50.639Z,21.27
2018-06-09T00:01:50.627Z,21.22
2018-06-09T00:02:50.628Z,21.19
2018-06-09T00:03:50.635Z,21.28
2018-06-09T00:04:50.635Z,21.21
2018-06-09T00:05:50.630Z,21.19
2018-06-09T00:06:50.630Z,21.22
2018-06-09T00:07:50.631Z,21.21
2018-06-09T00:08:50.631Z,21.26
2018-06-09T00:09:50.636Z,21.18
2018-06-09T00:10:50.637Z,21.22
2018-06-09T00:11:50.638Z,21.15
2018-06-09T00:12:50.638Z,21.13
2018-06-09T00:13:50.635Z,21.16
2018-06-09T00:14:50.636Z,21.16
2018-06-09T00:15:50.637Z,21.19
2018-06-09T00:16:50.636Z,21.11
2018-06-09T00:17:50.641Z,21.13
2018-06-09T00:18:50.644Z,21.18
2018-06-09T00:19:50.640Z,21.19
2018-06-09T00:20:50.639Z,21.18
2018-06-09T00:21:50.645Z,21.22
2018-06-09T00:22:50.648Z,21.11
2018-06-09T00:23:50.645Z,21.16
2018-06-09T00:24:50.647Z,21.18
2018-06-09T00:25:50.642Z,21.18
2018-06-09T00:26:50.643Z,21.15
2018-06-09T00:27:50.643Z,21.19
2018-06-09T00:28:50.645Z,21.18
2018-06-09T00:29:50.649Z,21.19
2018-06-09T00:30:50.653Z,21.21
2018-06-09T00:31:50.649Z,21.21
2018-06-09T00:32:50.650Z,21.21
2018-06-09T00:33:50.649Z,21.22
2018-06-09T00:34:50.647Z,21.19
2018-06-09T00:35:50.678Z,21.24
2018-06-09T00:36:50.653Z,21.26
2018-06-09T00:37:50.651Z,21.27
2018-06-09T00:38:50.651Z,21.21
2018-06-09T00:39:50.650Z,21.27
2018-06-09T00:40:50.650Z,21.16
2018-06-09T00:41:50.657Z,21.28
2018-06-09T00:42:50.656Z,21.18
2018-06-09T00:43:50.659Z,21.16
2018-06-09T00:44:50.658Z,21.19
2018-06-09T00:45:50.654Z,21.22
2018-06-09T00:46:50.654Z,21.19
2018-06-09T00:47:50.656Z,21.19
2018-06-09T00:48:50.655Z,21.15
2018-06-09T00:49:50.659Z,21.18
2018-06-09T00:50:50.661Z,21.16
2018-06-09T00:51:50.657Z,21.12
2018-06-09T00:52:50.657Z,21.12
2018-06-09T00:53:50.661Z,21.00
2018-06-09T00:54:50.664Z,21.09
2018-06-09T00:55:50.665Z,20.91
2018-06-09T00:56:50.665Z,20.87
2018-06-09T00:57:50.661Z,20.90
2018-06-09T00:58:50.660Z,20.85
2018-06-09T00:59:50.661Z,20.81
2018-06-09T01:00:50.661Z,20.81
2018-06-09T01:01:50.667Z,20.83
2018-06-09T01:02:50.668Z,20.82
2018-06-09T01:03:50.667Z,20.71
2018-06-09T01:04:50.666Z,20.71
2018-06-09T01:05:50.663Z,20.69
2018-06-09T01:06:50.667Z,20.68
2018-06-09T01:07:50.669Z,20.69
2018-06-09T01:08:50.669Z,20.66
2018-06-09T01:09:50.666Z,20.60
2018-06-09T01:10:50.664Z,20.58
2018-06-09T01:11:50.670Z,20.56
2018-06-09T01:12:50.664Z,20.50
2018-06-09T01:13:50.670Z,20.51
2018-06-09T01:14:50.670Z,20.44
2018-06-09T01:15:50.670Z,20.44
2018-06-09T01:16:50.671Z,20.48
2018-06-09T01:17:50.664Z,20.41
2018-06-09T01:18:50.664Z,20.35
2018-06-09T01:19:50.666Z,20.38
2018-06-09T01:20:50.667Z,20.35
2018-06-09T01:21:50.669Z,20.33
2018-06-09T01:22:50.669Z,20.38
2018-06-09T01:23:50.665Z,20.30
2018-06-09T01:24:50.665Z,20.35
2018-06-09T01:25:50.669Z,20.34
2018-06-09T01:26:50.669Z,20.37
2018-06-09T01:27:50.669Z,20.38
2018-06-09T01:28:50.670Z,20.37
2018-06-09T01:29:50.664Z,20.35
2018-06-09T01:30:50.665Z,20.31
2018-06-09T01:31:50.667Z,20.35
2018-06-09T01:32:50.665Z,20.30
2018-06-09T01:33:50.674Z,20.27
2018-06-09T01:34:50.671Z,20.30
2018-06-09T01:35:50.670Z,20.27
2018-06-09T01:36:50.673Z,20.30
2018-06-09T01:37:50.664Z,20.22
2018-06-09T01:38:50.664Z,20.26
2018-06-09T01:39:50.669Z,20.27
2018-06-09T01:40:50.668Z,20.31
2018-06-09T01:41:50.662Z,20.33
2018-06-09T01:42:50.662Z,20.25
2018-06-09T01:43:50.662Z,20.16
2018-06-09T01:44:50.663Z,20.30
2018-06-09T01:45:50.666Z,20.20
2018-06-09T01:46:50.666Z,20.26
2018-06-09T01:47:50.666Z,20.25
2018-06-09T01:48:50.665Z,20.27
2018-06-09T01:49:50.661Z,20.27
2018-06-09T01:50:50.661Z,20.17
2018-06-09T01:51:50.661Z,20.27
2018-06-09T01:52:50.660Z,20.25
2018-06-09T01:53:50.666Z,20.19
2018-06-09T01:54:50.666Z,20.26
2018-06-09T01:55:50.661Z,20.31
2018-06-09T01:56:50.661Z,20.15
2018-06-09T01:57:50.665Z,20.30
2018-06-09T01:58:50.666Z,20.38
2018-06-09T01:59:50.665Z,20.23
2018-06-09T02:00:50.664Z,20.15
2018-06-09T02:01:50.659Z,20.15
2018-06-09T02:02:50.659Z,20.15
2018-06-09T02:03:50.664Z,20.16
2018-06-09T02:04:50.662Z,20.16
2018-06-09T02:05:50.664Z,20.23
2018-06-09T02:06:50.664Z,20.22
2018-06-09T02:07:50.665Z,20.19
2018-06-09T02:08:50.664Z,20.20
2018-06-09T02:09:50.659Z,20.15
2018-06-09T02:10:50.659Z,20.17
2018-06-09T02:11:50.666Z,20.22
2018-06-09T02:12:50.663Z,20.12
2018-06-09T02:13:50.658Z,20.12
2018-06-09T02:14:50.659Z,20.10
2018-06-09T02:15:50.658Z,19.98
2018-06-09T02:16:50.657Z,20.01
2018-06-09T02:17:50.662Z,20.01
2018-06-09T02:18:50.662Z,20.00
2018-06-09T02:19:50.662Z,19.98
2018-06-09T02:20:50.661Z,20.02
2018-06-09T02:21:50.661Z,19.98
2018-06-09T02:22:50.662Z,19.89
2018-06-09T02:23:50.657Z,19.86
2018-06-09T02:24:50.656Z,19.75
2018-06-09T02:25:50.664Z,19.75
2018-06-09T02:26:50.661Z,19.71
2018-06-09T02:27:50.657Z,19.80
2018-06-09T02:28:50.656Z,19.68
2018-06-09T02:29:50.659Z,19.67
2018-06-09T02:30:50.665Z,19.57
2018-06-09T02:31:50.663Z,19.62
2018-06-09T02:32:50.658Z,19.64
2018-06-09T02:33:50.654Z,19.53
2018-06-09T02:34:50.660Z,19.58
2018-06-09T02:35:50.654Z,19.60
2018-06-09T02:36:50.653Z,19.53
2018-06-09T02:37:50.660Z,19.49
2018-06-09T02:38:50.657Z,19.46
2018-06-09T02:39:50.657Z,19.46
2018-06-09T02:40:50.655Z,19.42
2018-06-09T02:41:50.650Z,19.45
2018-06-09T02:42:50.650Z,19.47
2018-06-09T02:43:50.655Z,19.46
2018-06-09T02:44:50.654Z,19.42
2018-06-09T02:45:50.649Z,19.32
2018-06-09T02:46:50.649Z,19.30
2018-06-09T02:47:50.651Z,19.25
2018-06-09T02:48:50.651Z,19.30
2018-06-09T02:49:50.653Z,19.28
2018-06-09T02:50:50.653Z,19.30
2018-06-09T02:51:50.656Z,19.30
2018-06-09T02:52:50.651Z,19.25
2018-06-09T02:53:50.645Z,19.20
2018-06-09T02:54:50.650Z,19.21
2018-06-09T02:55:50.645Z,19.15
2018-06-09T02:56:50.644Z,19.17
2018-06-09T02:57:50.648Z,19.16
2018-06-09T02:58:50.647Z,19.15
2018-06-09T02:59:50.644Z,19.07
2018-06-09T03:00:50.641Z,18.97
2018-06-09T03:01:50.649Z,19.01
2018-06-09T03:02:50.645Z,18.97
2018-06-09T03:03:50.647Z,18.99
2018-06-09T03:04:50.644Z,18.96
2018-06-09T03:05:50.640Z,18.93
2018-06-09T03:06:50.639Z,19.02
2018-06-09T03:07:50.639Z,18.96
2018-06-09T03:08:50.639Z,18.96
2018-06-09T03:09:50.643Z,18.93
2018-06-09T03:10:50.641Z,18.94
2018-06-09T03:11:50.640Z,18.94
2018-06-09T03:12:50.639Z,18.91
2018-06-09T03:13:50.634Z,18.94
2018-06-09T03:14:50.634Z,18.97
2018-06-09T03:15:50.638Z,18.89
2018-06-09T03:16:50.636Z,18.89
2018-06-09T03:17:50.631Z,18.84
2018-06-09T03:18:50.631Z,18.84
2018-06-09T03:19:50.631Z,18.82
2018-06-09T03:20:50.629Z,18.89
2018-06-09T03:21:50.634Z,18.82
2018-06-09T03:22:50.634Z,18.82
2018-06-09T03:23:50.633Z,18.76
2018-06-09T03:24:50.631Z,18.76
2018-06-09T03:25:50.628Z,18.78
2018-06-09T03:26:50.626Z,18.72
2018-06-09T03:27:50.624Z,18.68
2018-06-09T03:28:50.623Z,18.71
2018-06-09T03:29:50.627Z,18.72
2018-06-09T03:30:50.627Z,18.71
2018-06-09T03:31:50.622Z,18.66
2018-06-09T03:32:50.621Z,18.66
2018-06-09T03:33:50.624Z,18.64
2018-06-09T03:34:50.625Z,18.60
2018-06-09T03:35:50.625Z,18.56
2018-06-09T03:36:50.623Z,18.66
2018-06-09T03:37:50.617Z,18.62
2018-06-09T03:38:50.618Z,18.66
2018-06-09T03:39:50.621Z,18.57
2018-06-09T03:40:50.625Z,18.64
2018-06-09T03:41:50.616Z,18.69
2018-06-09T03:42:50.613Z,18.62
2018-06-09T03:43:50.612Z,18.60
2018-06-09T03:44:50.612Z,18.57
2018-06-09T03:45:50.615Z,18.54
2018-06-09T03:46:50.616Z,18.59
2018-06-09T03:47:50.609Z,18.60
2018-06-09T03:48:50.642Z,18.50
2018-06-09T03:49:50.611Z,18.60
2018-06-09T03:50:50.611Z,18.53
2018-06-09T03:51:50.612Z,18.60
2018-06-09T03:52:50.612Z,18.59
2018-06-09T03:53:50.604Z,18.60
2018-06-09T03:54:50.604Z,18.65
2018-06-09T03:55:50.603Z,18.66
2018-06-09T03:56:50.602Z,18.64
2018-06-09T03:57:50.606Z,18.65
2018-06-09T03:58:50.606Z,18.62
2018-06-09T03:59:50.604Z,18.69
2018-06-09T04:00:50.603Z,18.71
2018-06-09T04:01:50.598Z,18.66
2018-06-09T04:02:50.597Z,18.72
2018-06-09T04:03:50.601Z,18.71
2018-06-09T04:04:50.599Z,18.79
2018-06-09T04:05:50.594Z,18.76
2018-06-09T04:06:50.595Z,18.83
2018-06-09T04:07:50.595Z,18.78
2018-06-09T04:08:50.627Z,18.90
2018-06-09T04:09:50.597Z,18.90
2018-06-09T04:10:50.600Z,18.87
2018-06-09T04:11:50.596Z,18.83
2018-06-09T04:12:50.596Z,18.93
2018-06-09T04:13:50.589Z,18.97
2018-06-09T04:14:50.590Z,18.99
2018-06-09T04:15:50.590Z,18.99
2018-06-09T04:16:50.587Z,18.99
2018-06-09T04:17:50.591Z,19.09
2018-06-09T04:18:50.595Z,19.07
2018-06-09T04:19:50.587Z,19.17
2018-06-09T04:20:50.589Z,19.25
2018-06-09T04:21:50.594Z,19.28
2018-06-09T04:22:50.590Z,19.35
2018-06-09T04:23:50.589Z,19.39
2018-06-09T04:24:50.591Z,19.42
2018-06-09T04:25:50.584Z,19.47
2018-06-09T04:26:50.583Z,19.50
2018-06-09T04:27:50.583Z,19.67
2018-06-09T04:28:50.582Z,19.75
2018-06-09T04:29:50.587Z,19.75
2018-06-09T04:30:50.587Z,19.78
2018-06-09T04:31:50.586Z,19.80
2018-06-09T04:32:50.591Z,19.92
2018-06-09T04:33:50.587Z,19.98
2018-06-09T04:34:50.580Z,19.89
2018-06-09T04:35:50.586Z,20.01
2018-06-09T04:36:50.585Z,20.01
2018-06-09T04:37:50.581Z,20.12
2018-06-09T04:38:50.582Z,20.19
2018-06-09T04:39:50.620Z,20.20
2018-06-09T04:40:50.582Z,20.31
2018-06-09T04:41:50.588Z,20.40
2018-06-09T04:42:50.588Z,20.40
2018-06-09T04:43:50.586Z,20.48
2018-06-09T04:44:50.586Z,20.44
2018-06-09T04:45:50.582Z,20.44
2018-06-09T04:46:50.583Z,20.54
2018-06-09T04:47:50.583Z,20.48
2018-06-09T04:48:50.583Z,20.69
2018-06-09T04:49:50.589Z,20.64
2018-06-09T04:50:50.592Z,20.66
2018-06-09T04:51:50.587Z,20.66
2018-06-09T04:52:50.585Z,20.68
2018-06-09T04:53:50.590Z,20.78
2018-06-09T04:54:50.590Z,20.72
2018-06-09T04:55:50.590Z,20.75
2018-06-09T04:56:50.592Z,20.73
2018-06-09T04:57:50.587Z,20.82
2018-06-09T04:58:50.588Z,20.81
2018-06-09T04:59:50.588Z,20.82
2018-06-09T05:00:50.592Z,20.96
2018-06-09T05:01:50.596Z,20.96
2018-06-09T05:02:50.594Z,21.05
2018-06-09T05:03:50.595Z,21.05
2018-06-09T05:04:50.596Z,21.11
2018-06-09T05:05:50.592Z,21.18
2018-06-09T05:06:50.594Z,21.28
2018-06-09T05:07:50.600Z,21.28
2018-06-09T05:08:50.599Z,21.43
2018-06-09T05:09:50.594Z,21.58
2018-06-09T05:10:50.595Z,21.73
2018-06-09T05:11:50.596Z,21.94
2018-06-09T05:12:50.596Z,22.12
2018-06-09T05:13:50.602Z,22.24
2018-06-09T05:14:50.603Z,22.38
2018-06-09T05:15:50.605Z,22.57
2018-06-09T05:16:50.606Z,22.74
2018-06-09T05:17:50.604Z,22.94
2018-06-09T05:18:50.605Z,23.14
2018-06-09T05:19:50.607Z,23.35
2018-06-09T05:20:50.608Z,23.53
2018-06-09T05:21:50.615Z,23.72
2018-06-09T05:22:50.618Z,23.93
2018-06-09T05:23:50.617Z,24.16
2018-06-09T05:24:50.618Z,24.39
2018-06-09T05:25:50.624Z,24.63
2018-06-09T05:26:50.626Z,24.87
2018-06-09T05:27:50.631Z,24.94
2018-06-09T05:28:50.630Z,24.97
2018-06-09T05:29:50.629Z,24.99
2018-06-09T05:30:50.631Z,25.01
2018-06-09T05:31:50.638Z,25.16
2018-06-09T05:32:50.637Z,25.44
2018-06-09T05:33:50.645Z,25.49
2018-06-09T05:34:50.648Z,25.59
2018-06-09T05:35:50.652Z,25.44
2018-06-09T05:36:50.656Z,25.54
2018-06-09T05:37:50.654Z,25.67
2018-06-09T05:38:50.664Z,25.82
2018-06-09T05:39:50.666Z,26.01
2018-06-09T05:40:50.669Z,26.04
2018-06-09T05:41:50.668Z,26.13
2018-06-09T05:42:50.674Z,26.08
2018-06-09T05:43:50.676Z,25.98
2018-06-09T05:44:50.678Z,25.96
2018-06-09T05:45:50.687Z,26.09
2018-06-09T05:46:50.691Z,26.24
2018-06-09T05:47:50.696Z,26.38
2018-06-09T05:48:50.700Z,26.50
2018-06-09T05:49:50.698Z,26.41
2018-06-09T05:50:50.703Z,26.34
2018-06-09T05:51:50.708Z,26.20
2018-06-09T05:52:50.710Z,26.16
2018-06-09T05:53:50.719Z,26.03
2018-06-09T05:54:50.723Z,25.89
2018-06-09T05:55:50.725Z,25.85
2018-06-09T05:56:50.727Z,25.56
2018-06-09T05:57:50.735Z,25.54
2018-06-09T05:58:50.739Z,25.38
2018-06-09T05:59:50.744Z,25.34
2018-06-09T06:00:50.747Z,25.34
2018-06-09T06:01:50.748Z,25.49
2018-06-09T06:02:50.751Z,25.82
2018-06-09T06:03:50.755Z,26.31
2018-06-09T06:04:50.758Z,26.65
2018-06-09T06:05:50.771Z,26.81
2018-06-09T06:06:50.772Z,26.79
2018-06-09T06:07:50.775Z,26.71
2018-06-09T06:08:50.780Z,26.88
2018-06-09T06:09:50.779Z,27.01
2018-06-09T06:10:50.783Z,27.09
2018-06-09T06:11:50.792Z,27.12
2018-06-09T06:12:50.795Z,27.23
2018-06-09T06:13:50.796Z,27.39
2018-06-09T06:14:50.800Z,27.62
2018-06-09T06:15:50.805Z,27.88
2018-06-09T06:16:50.811Z,28.35
2018-06-09T06:17:50.821Z,28.72
2018-06-09T06:18:50.840Z,29.18
2018-06-09T06:19:50.831Z,29.63
2018-06-09T06:20:50.837Z,29.64
2018-06-09T06:21:50.836Z,29.42
2018-06-09T06:22:50.842Z,29.42
2018-06-09T06:23:50.848Z,29.25
2018-06-09T06:24:50.853Z,29.12
2018-06-09T06:25:50.863Z,29.11
2018-06-09T06:26:50.871Z,28.91
2018-06-09T06:27:50.874Z,28.79
2018-06-09T06:28:50.877Z,28.46
2018-06-09T06:29:50.887Z,28.13
2018-06-09T06:30:50.894Z,28.20
2018-06-09T06:31:50.905Z,28.30
2018-06-09T06:32:50.906Z,28.54
2018-06-09T06:33:50.908Z,28.55
2018-06-09T06:34:50.915Z,28.65
2018-06-09T06:35:50.921Z,28.70
2018-06-09T06:36:50.927Z,28.77
2018-06-09T06:37:50.939Z,28.67
2018-06-09T06:38:50.945Z,28.69
2018-06-09T06:39:50.950Z,28.73
2018-06-09T06:40:50.956Z,28.69
2018-06-09T06:41:50.958Z,28.70
2018-06-09T06:42:50.964Z,28.69
2018-06-09T06:43:50.975Z,28.64
2018-06-09T06:44:50.981Z,28.77
2018-06-09T06:45:50.984Z,28.70
2018-06-09T06:46:50.989Z,28.65
2018-06-09T06:47:50.997Z,28.76
2018-06-09T06:48:51.002Z,28.72
2018-06-09T06:49:51.014Z,28.55
2018-06-09T06:50:51.021Z,28.42
2018-06-09T06:51:51.026Z,28.40
2018-06-09T06:52:51.032Z,28.32
2018-06-09T06:53:51.033Z,28.18
2018-06-09T06:54:51.042Z,28.23
2018-06-09T06:55:51.048Z,28.23
2018-06-09T06:56:51.053Z,28.20
2018-06-09T06:57:51.065Z,28.15
2018-06-09T06:58:51.072Z,28.06
2018-06-09T06:59:51.075Z,27.91
2018-06-09T07:00:51.080Z,27.93
2018-06-09T07:01:51.090Z,27.87
2018-06-09T07:02:51.097Z,27.88
2018-06-09T07:03:51.102Z,27.91
2018-06-09T07:04:51.107Z,27.90
2018-06-09T07:05:51.113Z,27.93
2018-06-09T07:06:51.116Z,28.08
2018-06-09T07:07:51.125Z,28.17
2018-06-09T07:08:51.129Z,28.01
2018-06-09T07:09:51.138Z,28.06
2018-06-09T07:10:51.146Z,28.01
2018-06-09T07:11:51.151Z,28.21
2018-06-09T07:12:51.156Z,28.13
2018-06-09T07:13:51.158Z,28.15
2018-06-09T07:14:51.165Z,28.62
2018-06-09T07:15:51.175Z,29.25
2018-06-09T07:16:51.181Z,29.62
2018-06-09T07:17:51.182Z,29.91
2018-06-09T07:18:51.191Z,30.29
2018-06-09T07:19:51.196Z,30.64
2018-06-09T07:20:51.202Z,31.15
2018-06-09T07:21:51.214Z,31.71
2018-06-09T07:22:51.221Z,31.97
2018-06-09T07:23:51.232Z,32.22
2018-06-09T07:24:51.235Z,32.19
2018-06-09T07:25:51.239Z,32.21
2018-06-09T07:26:51.247Z,31.98
2018-06-09T07:27:51.255Z,31.78
2018-06-09T07:28:51.263Z,31.71
2018-06-09T07:29:51.276Z,31.35
2018-06-09T07:30:51.289Z,30.96
2018-06-09T07:31:51.289Z,30.96
2018-06-09T07:32:51.298Z,30.98
2018-06-09T07:33:51.311Z,31.05
2018-06-09T07:34:51.320Z,31.20
2018-06-09T07:35:51.331Z,31.20
2018-06-09T07:36:51.335Z,31.38
2018-06-09T07:37:51.340Z,31.45
2018-06-09T07:38:51.350Z,31.13
2018-06-09T07:39:51.361Z,31.19
2018-06-09T07:40:51.366Z,31.13
2018-06-09T07:41:51.379Z,31.07
2018-06-09T07:42:51.388Z,30.88
2018-06-09T07:43:51.397Z,30.76
2018-06-09T07:44:51.404Z,30.67
2018-06-09T07:45:51.409Z,30.68
2018-06-09T07:46:51.419Z,30.63
2018-06-09T07:47:51.446Z,30.25
2018-06-09T07:48:51.439Z,30.42
2018-06-09T07:49:51.442Z,30.37
2018-06-09T07:50:51.450Z,30.36
2018-06-09T07:51:51.458Z,30.29
2018-06-09T07:52:51.466Z,30.48
2018-06-09T07:53:51.479Z,30.34
2018-06-09T07:54:51.487Z,30.22
2018-06-09T07:55:51.496Z,30.37
2018-06-09T07:56:51.503Z,30.48
2018-06-09T07:57:51.507Z,30.61
2018-06-09T07:58:51.520Z,30.59
2018-06-09T07:59:51.528Z,30.78
2018-06-09T08:00:51.533Z,30.76
2018-06-09T08:01:51.544Z,30.79
2018-06-09T08:02:51.552Z,30.83
2018-06-09T08:03:51.556Z,30.93
2018-06-09T08:04:51.563Z,30.93
2018-06-09T08:05:51.576Z,30.82
2018-06-09T08:06:51.595Z,30.67
2018-06-09T08:07:51.592Z,30.63
2018-06-09T08:08:51.599Z,30.57
2018-06-09T08:09:51.606Z,30.63
2018-06-09T08:10:51.611Z,30.56
2018-06-09T08:11:51.620Z,30.57
2018-06-09T08:12:51.626Z,30.37
2018-06-09T08:13:51.640Z,30.49
2018-06-09T08:14:51.647Z,30.63
2018-06-09T08:15:51.655Z,30.59
2018-06-09T08:16:51.666Z,30.66
2018-06-09T08:17:51.665Z,30.57
2018-06-09T08:18:51.674Z,30.56
2018-06-09T08:19:51.689Z,30.32
2018-06-09T08:20:51.694Z,30.48
2018-06-09T08:21:51.698Z,30.42
2018-06-09T08:22:51.704Z,30.40
2018-06-09T08:23:51.712Z,30.53
2018-06-09T08:24:51.719Z,30.42
2018-06-09T08:25:51.731Z,30.37
2018-06-09T08:26:51.738Z,30.37
2018-06-09T08:27:51.746Z,30.21
2018-06-09T08:28:51.755Z,30.40
2018-06-09T08:29:51.757Z,30.44
2018-06-09T08:30:51.764Z,30.40
2018-06-09T08:31:51.773Z,30.34
2018-06-09T08:32:51.779Z,30.37
2018-06-09T08:33:51.791Z,30.63
2018-06-09T08:34:51.800Z,30.57
2018-06-09T08:35:51.803Z,30.61
2018-06-09T08:36:51.810Z,30.79
2018-06-09T08:37:51.821Z,30.97
2018-06-09T08:38:51.831Z,31.18
2018-06-09T08:39:51.839Z,31.19
2018-06-09T08:40:51.844Z,31.20
2018-06-09T08:41:51.848Z,30.61
2018-06-09T08:42:51.856Z,30.23
2018-06-09T08:43:51.866Z,30.21
2018-06-09T08:44:51.875Z,30.32
2018-06-09T08:45:51.884Z,30.21
2018-06-09T08:46:51.894Z,30.21
2018-06-09T08:47:51.901Z,30.16
2018-06-09T08:48:51.909Z,30.28
2018-06-09T08:49:51.916Z,30.34
2018-06-09T08:50:51.929Z,30.26
2018-06-09T08:51:51.933Z,30.36
2018-06-09T08:52:51.941Z,30.29
2018-06-09T08:53:51.945Z,30.37
2018-06-09T08:54:51.953Z,30.29
2018-06-09T08:55:51.961Z,30.40
2018-06-09T08:56:52.033Z,30.51
2018-06-09T08:57:51.983Z,30.64
2018-06-09T08:58:51.993Z,30.63
2018-06-09T08:59:51.999Z,30.70
2018-06-09T09:00:52.006Z,30.75
2018-06-09T09:01:52.009Z,30.78
2018-06-09T09:02:52.016Z,30.82
2018-06-09T09:03:52.025Z,30.96
2018-06-09T09:04:52.033Z,31.16
2018-06-09T09:05:52.044Z,31.46
2018-06-09T09:06:52.055Z,31.62
2018-06-09T09:07:52.056Z,32.07
2018-06-09T09:08:52.064Z,32.06
2018-06-09T09:09:52.077Z,31.76
2018-06-09T09:10:52.089Z,31.69
2018-06-09T09:11:52.146Z,31.78
2018-06-09T09:12:52.103Z,32.17
2018-06-09T09:13:52.107Z,33.29
2018-06-09T09:14:52.115Z,33.56
2018-06-09T09:15:52.125Z,33.60
2018-06-09T09:16:52.138Z,33.09
2018-06-09T09:17:52.149Z,33.28
2018-06-09T09:18:52.159Z,33.41
2018-06-09T09:19:52.168Z,33.62
2018-06-09T09:20:52.177Z,34.14
2018-06-09T09:21:52.183Z,34.50
2018-06-09T09:22:52.193Z,35.17
2018-06-09T09:23:52.208Z,35.56
2018-06-09T09:24:52.220Z,36.37
2018-06-09T09:25:52.279Z,36.57
2018-06-09T09:26:52.238Z,36.25
2018-06-09T09:27:52.251Z,36.22
2018-06-09T09:28:52.266Z,36.05
2018-06-09T09:29:52.281Z,35.89
2018-06-09T09:30:52.293Z,35.95
2018-06-09T09:31:52.307Z,35.92
2018-06-09T09:32:52.318Z,35.99
2018-06-09T09:33:52.328Z,36.00
2018-06-09T09:34:52.341Z,36.02
2018-06-09T09:35:52.354Z,35.64
2018-06-09T09:36:52.367Z,35.46
2018-06-09T09:37:52.384Z,35.10
2018-06-09T09:38:52.398Z,34.71
2018-06-09T09:39:52.407Z,34.52
2018-06-09T09:40:52.419Z,34.11
2018-06-09T09:41:52.436Z,34.15
2018-06-09T09:42:52.451Z,34.28
2018-06-09T09:43:52.472Z,34.84
2018-06-09T09:44:52.477Z,35.17
2018-06-09T09:45:52.486Z,35.78
2018-06-09T09:46:52.499Z,35.56
2018-06-09T09:47:52.513Z,35.80
2018-06-09T09:48:52.524Z,35.84
2018-06-09T09:49:52.543Z,35.83
2018-06-09T09:50:52.556Z,36.15
2018-06-09T09:51:52.570Z,36.25
2018-06-09T09:52:52.583Z,36.56
2018-06-09T09:53:52.593Z,36.74
2018-06-09T09:54:52.633Z,37.08
2018-06-09T09:55:52.626Z,37.63
2018-06-09T09:56:52.642Z,37.78
2018-06-09T09:57:52.651Z,38.15
2018-06-09T09:58:52.666Z,38.49
2018-06-09T09:59:52.686Z,37.12
2018-06-09T10:00:52.696Z,36.11
2018-06-09T10:01:52.724Z,36.08
2018-06-09T10:02:52.732Z,36.22
2018-06-09T10:03:52.748Z,36.56
2018-06-09T10:04:52.763Z,36.89
2018-06-09T10:05:52.774Z,37.46
2018-06-09T10:06:52.792Z,37.75
2018-06-09T10:07:52.807Z,37.68
2018-06-09T10:08:52.821Z,37.49
2018-06-09T10:09:52.842Z,37.88
2018-06-09T10:10:52.859Z,38.58
2018-06-09T10:11:52.874Z,38.97
2018-06-09T10:12:52.893Z,38.74
2018-06-09T10:13:52.906Z,39.27
2018-06-09T10:14:52.923Z,39.41
2018-06-09T10:15:52.939Z,39.24
2018-06-09T10:16:52.955Z,39.06
2018-06-09T10:17:52.966Z,39.05
2018-06-09T10:18:52.983Z,39.25
2018-06-09T10:19:53.001Z,39.28
2018-06-09T10:20:53.016Z,39.41
2018-06-09T10:21:53.041Z,39.31
2018-06-09T10:22:53.059Z,39.34
2018-06-09T10:23:53.072Z,39.28
2018-06-09T10:24:53.089Z,38.75
2018-06-09T10:25:53.100Z,38.26
2018-06-09T10:26:53.117Z,38.59
2018-06-09T10:27:53.138Z,38.82
2018-06-09T10:28:53.155Z,38.95
2018-06-09T10:29:53.167Z,39.25
2018-06-09T10:30:53.184Z,39.41
2018-06-09T10:31:53.201Z,39.43
2018-06-09T10:32:53.269Z,39.27
2018-06-09T10:33:53.239Z,38.82
2018-06-09T10:34:53.257Z,38.82
2018-06-09T10:35:53.274Z,38.82
2018-06-09T10:36:53.289Z,38.97
2018-06-09T10:37:53.303Z,38.93
2018-06-09T10:38:53.322Z,38.89
2018-06-09T10:39:53.337Z,39.27
2018-06-09T10:40:53.353Z,39.88
2018-06-09T10:41:53.375Z,40.22
2018-06-09T10:42:53.401Z,40.45
2018-06-09T10:43:53.405Z,40.66
2018-06-09T10:44:53.425Z,40.91
2018-06-09T10:45:53.449Z,41.07
2018-06-09T10:46:53.462Z,40.98
2018-06-09T10:47:53.479Z,40.97
2018-06-09T10:48:53.497Z,41.10
2018-06-09T10:49:53.510Z,40.88
2018-06-09T10:50:53.530Z,40.79
2018-06-09T10:51:53.543Z,40.58
2018-06-09T10:52:53.566Z,40.60
2018-06-09T10:53:53.585Z,40.58
2018-06-09T10:54:53.603Z,40.60
2018-06-09T10:55:53.623Z,40.71
2018-06-09T10:56:53.637Z,39.88
2018-06-09T10:57:53.650Z,39.99
2018-06-09T10:58:53.668Z,40.04
2018-06-09T10:59:53.691Z,40.28
2018-06-09T11:00:53.708Z,40.60
2018-06-09T11:01:53.722Z,40.90
2018-06-09T11:02:53.740Z,40.91
2018-06-09T11:03:53.758Z,41.09
2018-06-09T11:04:53.775Z,41.23
2018-06-09T11:05:53.797Z,41.26
2018-06-09T11:06:53.818Z,41.28
2018-06-09T11:07:53.834Z,41.19
2018-06-09T11:08:53.852Z,41.14
2018-06-09T11:09:53.869Z,40.86
2018-06-09T11:10:53.885Z,39.96
2018-06-09T11:11:53.903Z,39.35
2018-06-09T11:12:53.920Z,39.43
2018-06-09T11:13:53.943Z,39.38
2018-06-09T11:14:53.962Z,39.39
2018-06-09T11:15:53.976Z,39.50
2018-06-09T11:16:53.999Z,39.54
2018-06-09T11:17:54.017Z,39.51
2018-06-09T11:18:54.035Z,38.93
2018-06-09T11:19:54.052Z,38.84
2018-06-09T11:20:54.070Z,38.59
2018-06-09T11:21:54.083Z,38.18
2018-06-09T11:22:54.099Z,37.81
2018-06-09T11:23:54.116Z,37.43
2018-06-09T11:24:54.132Z,37.43
2018-06-09T11:25:54.155Z,36.84
2018-06-09T11:26:54.170Z,36.43
2018-06-09T11:27:54.185Z,36.21
2018-06-09T11:28:54.200Z,35.98
2018-06-09T11:29:54.211Z,35.66
2018-06-09T11:30:54.226Z,35.61
2018-06-09T11:31:54.245Z,35.44
2018-06-09T11:32:54.259Z,35.02
2018-06-09T11:33:54.269Z,34.93
2018-06-09T11:34:54.283Z,34.86
2018-06-09T11:35:54.298Z,34.63
2018-06-09T11:36:54.310Z,34.36
2018-06-09T11:37:54.329Z,33.96
2018-06-09T11:38:54.342Z,33.78
2018-06-09T11:39:54.355Z,33.66
2018-06-09T11:40:54.368Z,33.62
2018-06-09T11:41:54.374Z,33.74
2018-06-09T11:42:54.390Z,33.60
2018-06-09T11:43:54.399Z,33.53
2018-06-09T11:44:54.410Z,33.63
2018-06-09T11:45:54.425Z,33.74
2018-06-09T11:46:54.441Z,33.50
2018-06-09T11:47:54.446Z,33.62
2018-06-09T11:48:54.456Z,33.22
2018-06-09T11:49:54.472Z,33.02
2018-06-09T11:50:54.483Z,33.15
2018-06-09T11:51:54.499Z,33.03
2018-06-09T11:52:54.505Z,32.93
2018-06-09T11:53:54.507Z,33.05
2018-06-09T11:54:54.517Z,32.96
2018-06-09T11:55:54.527Z,32.88
2018-06-09T11:56:54.536Z,32.83
2018-06-09T11:57:54.553Z,32.87
2018-06-09T11:58:54.561Z,32.80
2018-06-09T11:59:54.572Z,32.63
2018-06-09T12:00:54.579Z,32.66
2018-06-09T12:01:54.585Z,32.66
2018-06-09T12:02:54.594Z,32.61
2018-06-09T12:03:54.607Z,32.66
2018-06-09T12:04:54.615Z,32.71
2018-06-09T12:05:54.621Z,32.71
2018-06-09T12:06:54.629Z,32.77
2018-06-09T12:07:54.639Z,32.83
2018-06-09T12:08:54.646Z,32.93
2018-06-09T12:09:54.660Z,32.72
2018-06-09T12:10:54.670Z,32.62
2018-06-09T12:11:54.673Z,32.71
2018-06-09T12:12:54.681Z,32.71
2018-06-09T12:13:54.694Z,32.62
2018-06-09T12:14:54.703Z,32.54
2018-06-09T12:15:54.711Z,32.54
2018-06-09T12:16:54.720Z,32.43
2018-06-09T12:17:54.723Z,32.49
2018-06-09T12:18:54.732Z,32.56
2018-06-09T12:19:54.744Z,32.22
2018-06-09T12:20:54.753Z,32.19
2018-06-09T12:21:54.756Z,32.27
2018-06-09T12:22:54.764Z,32.35
2018-06-09T12:23:54.772Z,32.39
2018-06-09T12:24:54.846Z,32.43
2018-06-09T12:25:54.793Z,32.49
2018-06-09T12:26:54.801Z,32.32
2018-06-09T12:27:54.808Z,32.28
2018-06-09T12:28:54.816Z,32.31
2018-06-09T12:29:54.819Z,32.22
2018-06-09T12:30:54.827Z,32.06
2018-06-09T12:31:54.835Z,31.98
2018-06-09T12:32:54.842Z,31.99
2018-06-09T12:33:54.858Z,31.87
2018-06-09T12:34:54.870Z,31.90
2018-06-09T12:35:54.866Z,31.99
2018-06-09T12:36:54.873Z,32.05
2018-06-09T12:37:54.885Z,32.03
2018-06-09T12:38:54.894Z,32.07
2018-06-09T12:39:54.901Z,32.17
2018-06-09T12:40:54.907Z,32.05
2018-06-09T12:41:54.914Z,32.09
2018-06-09T12:42:54.919Z,32.06
2018-06-09T12:43:54.926Z,31.94
2018-06-09T12:44:54.933Z,31.91
2018-06-09T12:45:54.946Z,31.90
2018-06-09T12:46:54.954Z,31.99
2018-06-09T12:47:54.963Z,32.12
2018-06-09T12:48:54.969Z,32.09
2018-06-09T12:49:54.972Z,31.94
2018-06-09T12:50:54.978Z,31.99
2018-06-09T12:51:54.996Z,31.79
2018-06-09T12:52:55.007Z,31.67